Time;durP1;ratioP1;P1;durP2;ratioP2;P2;SDS_P1;SDS_P2;PMS_P1;PMS_P2;Temp;Humidity;BMP_temperature;BMP_pressure;BME280_temperature;BME280_humidity;BME280_pressure;Samples;Min_cycle;Max_cycle;Signal;HPM_P1;HPM_P2
2023/11/02 00:01:06;;;;;;;1.85;0.70;;;12.50;74.00;;;;;;5066075;28;20043;-80
2023/11/02 00:03:34;;;;;;;1.67;0.80;;;12.50;74.10;;;;;;5064280;28;20388;-79
2023/11/02 00:06:12;;;;;;;2.00;0.80;;;12.50;74.10;;;;;;5061663;28;20039;-79
2023/11/02 00:08:38;;;;;;;1.95;0.57;;;12.50;74.10;;;;;;5060498;28;20052;-78
2023/11/02 00:11:44;;;;;;;1.48;0.50;;;12.40;73.90;;;;;;5062356;28;20109;-79
2023/11/02 00:14:11;;;;;;;2.92;0.90;;;12.40;74.00;;;;;;5064181;28;20036;-78
2023/11/02 00:16:37;;;;;;;2.58;0.85;;;12.40;74.00;;;;;;5064652;28;20428;-78
2023/11/02 00:19:05;;;;;;;2.55;0.50;;;12.40;74.00;;;;;;5060404;28;20453;-79
2023/11/02 00:21:34;;;;;;;1.58;0.40;;;12.40;74.00;;;;;;5060436;28;20032;-79
2023/11/02 00:24:00;;;;;;;1.98;0.63;;;12.40;74.00;;;;;;5060344;28;20040;-78
2023/11/02 00:26:26;;;;;;;1.65;0.73;;;12.40;74.10;;;;;;5057974;28;20491;-79
2023/11/02 00:28:53;;;;;;;2.35;0.57;;;12.40;74.10;;;;;;5057811;28;20039;-79
2023/11/02 00:31:19;;;;;;;3.60;0.90;;;12.40;74.10;;;;;;5060726;28;20111;-79
2023/11/02 00:33:46;;;;;;;2.28;0.70;;;12.40;74.20;;;;;;5064187;28;20181;-78
2023/11/02 00:36:15;;;;;;;3.60;1.15;;;12.40;74.20;;;;;;5060293;28;20076;-78
2023/11/02 00:38:41;;;;;;;3.22;0.90;;;12.40;74.20;;;;;;5091737;27;20056;-78
2023/11/02 00:41:07;;;;;;;4.72;1.27;;;12.40;74.20;;;;;;5052687;28;20029;-78
2023/11/02 00:43:33;;;;;;;2.65;0.77;;;12.30;74.00;;;;;;5090941;28;20029;-78
2023/11/02 00:45:59;;;;;;;5.90;1.20;;;12.40;74.30;;;;;;5060610;28;20055;-78
2023/11/02 00:48:31;;;;;;;2.78;0.90;;;12.30;74.10;;;;;;5062450;28;20421;-78
2023/11/02 00:51:13;;;;;;;5.67;1.60;;;12.30;74.10;;;;;;5063984;28;20043;-78
2023/11/02 00:53:45;;;;;;;3.47;1.05;;;12.30;74.10;;;;;;5052610;28;20233;-78
2023/11/02 00:56:12;;;;;;;4.47;0.85;;;12.30;74.20;;;;;;5072548;28;20036;-78
2023/11/02 00:58:46;;;;;;;2.75;1.40;;;12.30;74.20;;;;;;5057412;28;20032;-78
2023/11/02 01:01:14;;;;;;;5.00;2.15;;;12.30;74.30;;;;;;5078311;28;20033;-79
2023/11/02 01:03:48;;;;;;;2.92;1.10;;;12.30;74.30;;;;;;5061864;28;20593;-78
2023/11/02 01:06:19;;;;;;;4.63;1.38;;;12.20;74.10;;;;;;5054239;28;20024;-78
2023/11/02 01:08:58;;;;;;;6.05;1.15;;;12.20;74.20;;;;;;5059052;28;20031;-78
2023/11/02 01:11:32;;;;;;;5.43;1.15;;;12.20;74.20;;;;;;5054958;28;20058;-78
2023/11/02 01:14:00;;;;;;;4.30;1.50;;;12.20;74.20;;;;;;5057627;28;20032;-79
2023/11/02 01:16:27;;;;;;;2.47;0.55;;;12.20;74.20;;;;;;5060973;28;20133;-81
2023/11/02 01:18:56;;;;;;;3.67;1.35;;;12.20;74.20;;;;;;5056492;28;20387;-80
2023/11/02 01:21:21;;;;;;;5.32;1.33;;;12.20;74.20;;;;;;5056935;28;20082;-80
2023/11/02 01:23:59;;;;;;;6.15;1.77;;;12.20;74.20;;;;;;5061087;28;20032;-80
2023/11/02 01:26:59;;;;;;;4.40;1.10;;;12.10;74.10;;;;;;5051449;28;20048;-80
2023/11/02 01:29:27;;;;;;;8.77;1.63;;;12.20;74.30;;;;;;5065577;28;20103;-80
2023/11/02 01:31:53;;;;;;;9.00;1.35;;;12.20;74.20;;;;;;5057759;28;20040;-79
2023/11/02 01:34:20;;;;;;;4.25;1.65;;;12.20;74.20;;;;;;5054937;28;20028;-80
2023/11/02 01:36:47;;;;;;;5.20;1.83;;;12.20;74.20;;;;;;5063243;28;20046;-80
2023/11/02 01:39:13;;;;;;;5.40;1.80;;;12.20;74.20;;;;;;5074128;28;20083;-80
2023/11/02 01:41:47;;;;;;;5.65;1.90;;;12.20;74.30;;;;;;5038146;28;20138;-79
2023/11/02 01:44:17;;;;;;;5.80;2.35;;;12.20;74.30;;;;;;5059257;28;20101;-80
2023/11/02 01:47:08;;;;;;;6.55;2.67;;;12.20;74.30;;;;;;5045175;28;20102;-80
2023/11/02 01:50:01;;;;;;;9.05;2.67;;;12.20;74.30;;;;;;5090232;28;20835;-80
2023/11/02 01:53:15;;;;;;;6.85;1.75;;;12.10;74.10;;;;;;5061118;28;20218;-80
2023/11/02 01:55:49;;;;;;;7.72;1.58;;;12.20;74.30;;;;;;4973358;28;20117;-80
2023/11/02 01:58:43;;;;;;;9.77;2.30;;;12.10;74.10;;;;;;5048544;28;20036;-80
2023/11/02 02:01:23;;;;;;;7.15;1.73;;;12.20;74.20;;;;;;5057077;28;20036;-80
2023/11/02 02:04:17;;;;;;;7.45;2.20;;;12.10;74.10;;;;;;5042504;28;20384;-80
2023/11/02 02:07:09;;;;;;;7.10;1.58;;;12.10;74.10;;;;;;5091133;28;20041;-79
2023/11/02 02:10:22;;;;;;;7.73;1.93;;;12.10;74.10;;;;;;5074564;28;20075;-79
2023/11/02 02:13:11;;;;;;;3.35;1.40;;;12.10;74.20;;;;;;5048096;28;20393;-80
2023/11/02 02:15:55;;;;;;;6.60;1.48;;;12.10;74.20;;;;;;5086330;28;20039;-81
2023/11/02 02:18:30;;;;;;;5.55;1.95;;;12.10;74.20;;;;;;5090829;28;20134;-81
2023/11/02 02:21:07;;;;;;;6.28;1.40;;;12.10;74.20;;;;;;5059521;28;20036;-81
2023/11/02 02:23:56;;;;;;;5.38;1.73;;;12.00;74.00;;;;;;5060783;28;20153;-80
2023/11/02 02:26:42;;;;;;;5.05;1.58;;;12.00;74.10;;;;;;5055971;28;20076;-80
2023/11/02 02:30:01;;;;;;;5.82;1.63;;;12.00;74.10;;;;;;5055987;28;20114;-80
2023/11/02 02:32:55;;;;;;;4.43;1.23;;;12.00;74.10;;;;;;5013214;28;20645;-80
2023/11/02 02:35:35;;;;;;;6.80;1.98;;;12.00;74.10;;;;;;5053382;28;20075;-80
2023/11/02 02:38:29;;;;;;;7.20;2.00;;;12.00;74.10;;;;;;5074311;28;20046;-79
2023/11/02 02:41:02;;;;;;;4.88;1.35;;;12.00;74.10;;;;;;5055426;28;20594;-80
2023/11/02 02:43:30;;;;;;;6.68;2.03;;;12.00;74.20;;;;;;5056175;28;20099;-80
2023/11/02 02:45:57;;;;;;;5.97;1.33;;;12.00;74.10;;;;;;5061996;28;20479;-78
2023/11/02 02:48:25;;;;;;;8.07;1.98;;;12.00;74.10;;;;;;5063945;28;20403;-78
2023/11/02 02:50:57;;;;;;;5.90;1.55;;;12.00;74.20;;;;;;5065175;28;20435;-78
2023/11/02 02:53:31;;;;;;;5.03;1.23;;;12.00;74.20;;;;;;5071375;28;20512;-79
2023/11/02 02:56:03;;;;;;;4.75;1.45;;;12.00;74.20;;;;;;5062639;28;20111;-79
2023/11/02 02:58:33;;;;;;;5.45;1.25;;;12.00;74.20;;;;;;5062171;28;20032;-79
2023/11/02 03:01:03;;;;;;;5.25;1.40;;;11.90;74.00;;;;;;5060441;28;20031;-79
2023/11/02 03:03:30;;;;;;;4.25;1.20;;;11.90;74.00;;;;;;5065237;28;20544;-79
2023/11/02 03:05:58;;;;;;;5.90;1.48;;;11.90;74.00;;;;;;5063070;28;20077;-80
2023/11/02 03:08:27;;;;;;;6.57;1.00;;;11.90;74.00;;;;;;5060132;28;21443;-79
2023/11/02 03:10:53;;;;;;;7.20;1.90;;;11.90;74.00;;;;;;5063353;28;20734;-79
2023/11/02 03:13:22;;;;;;;4.68;1.80;;;11.90;74.00;;;;;;5062890;28;20179;-79
2023/11/02 03:15:54;;;;;;;7.70;1.92;;;11.90;74.00;;;;;;5066369;28;20480;-79
2023/11/02 03:18:29;;;;;;;7.05;1.42;;;11.90;74.10;;;;;;5062753;28;20020;-79
2023/11/02 03:20:55;;;;;;;3.83;1.20;;;11.90;74.10;;;;;;5045672;28;20060;-79
2023/11/02 03:23:47;;;;;;;7.80;2.13;;;11.90;74.00;;;;;;5062003;28;20514;-79
2023/11/02 03:26:16;;;;;;;4.10;1.95;;;11.90;74.10;;;;;;5060459;28;20279;-79
2023/11/02 03:28:48;;;;;;;5.85;1.33;;;11.90;74.10;;;;;;5043512;28;20039;-79
2023/11/02 03:31:20;;;;;;;5.32;1.58;;;11.90;74.10;;;;;;5061265;28;20032;-80
2023/11/02 03:33:55;;;;;;;5.40;1.35;;;11.90;74.10;;;;;;5062756;28;20491;-79
2023/11/02 03:36:22;;;;;;;6.25;1.40;;;11.90;74.10;;;;;;5049747;28;20139;-80
2023/11/02 03:38:48;;;;;;;7.30;1.23;;;11.90;74.00;;;;;;5055840;28;20037;-80
2023/11/02 03:41:33;;;;;;;8.15;1.63;;;11.90;74.10;;;;;;5085330;28;20457;-81
2023/11/02 03:44:20;;;;;;;4.20;1.50;;;11.90;74.10;;;;;;5059483;28;20044;-80
2023/11/02 03:47:13;;;;;;;5.38;1.30;;;11.80;73.90;;;;;;5059023;28;20021;-79
2023/11/02 03:49:49;;;;;;;4.78;1.20;;;11.90;74.10;;;;;;5076706;28;20296;-78
2023/11/02 03:52:50;;;;;;;6.25;1.50;;;11.90;74.10;;;;;;5062666;28;20035;-78
2023/11/02 03:55:42;;;;;;;4.38;1.90;;;11.80;73.90;;;;;;5061055;28;20085;-79
2023/11/02 03:58:31;;;;;;;8.32;1.20;;;11.80;73.90;;;;;;5061054;28;20109;-79
2023/11/02 04:01:11;;;;;;;7.15;1.63;;;11.80;73.90;;;;;;5059848;28;20033;-78
2023/11/02 04:03:43;;;;;;;6.32;1.83;;;11.80;74.00;;;;;;5055566;28;20114;-78
2023/11/02 04:06:15;;;;;;;6.72;1.55;;;11.80;74.00;;;;;;5061288;28;20028;-78
2023/11/02 04:08:44;;;;;;;8.57;1.90;;;11.80;74.00;;;;;;5057670;28;20281;-78
2023/11/02 04:11:28;;;;;;;5.43;1.42;;;11.80;74.00;;;;;;5059865;28;20029;-78
2023/11/02 04:14:15;;;;;;;5.60;1.40;;;11.80;74.00;;;;;;5062852;28;20036;-79
2023/11/02 04:16:41;;;;;;;5.13;1.30;;;11.80;74.10;;;;;;5057583;28;20370;-79
2023/11/02 04:19:08;;;;;;;8.88;1.73;;;11.80;74.10;;;;;;5061121;28;20064;-79
2023/11/02 04:21:34;;;;;;;7.13;1.70;;;11.80;74.10;;;;;;5060828;28;20034;-79
2023/11/02 04:24:00;;;;;;;4.00;1.45;;;11.80;74.10;;;;;;5060760;28;20029;-79
2023/11/02 04:26:28;;;;;;;3.88;1.13;;;11.80;74.10;;;;;;5060383;28;20104;-79
2023/11/02 04:28:56;;;;;;;5.43;1.20;;;11.80;74.10;;;;;;5056828;28;20025;-78
2023/11/02 04:31:22;;;;;;;6.18;1.75;;;11.80;74.10;;;;;;5062203;28;20025;-78
2023/11/02 04:33:48;;;;;;;4.78;1.58;;;11.80;74.10;;;;;;5061521;28;20538;-78
2023/11/02 04:36:14;;;;;;;5.57;1.20;;;11.80;74.10;;;;;;5094020;28;20376;-78
2023/11/02 04:38:40;;;;;;;5.18;1.35;;;11.80;74.10;;;;;;5056504;28;20488;-78
2023/11/02 04:41:06;;;;;;;6.63;1.48;;;11.80;74.10;;;;;;5053997;28;20025;-79
2023/11/02 04:43:32;;;;;;;5.95;1.70;;;11.80;74.70;;;;;;5058186;28;20287;-78
2023/11/02 04:45:58;;;;;;;6.32;1.70;;;11.80;74.20;;;;;;5062532;28;20024;-79
2023/11/02 04:48:24;;;;;;;6.10;1.52;;;11.80;74.20;;;;;;5044513;28;20116;-78
2023/11/02 04:50:56;;;;;;;7.38;1.50;;;11.70;74.50;;;;;;5061047;28;20201;-77
2023/11/02 04:53:22;;;;;;;4.78;1.33;;;11.70;74.00;;;;;;5055443;28;20044;-78
2023/11/02 04:55:49;;;;;;;4.38;1.23;;;11.70;74.00;;;;;;5062620;28;20025;-77
2023/11/02 04:58:15;;;;;;;5.05;1.30;;;11.70;74.00;;;;;;5061340;28;20547;-78
2023/11/02 05:00:40;;;;;;;4.85;1.63;;;11.70;74.00;;;;;;5053825;28;20561;-78
2023/11/02 05:03:06;;;;;;;4.13;0.90;;;11.70;74.10;;;;;;5061858;28;20060;-79
2023/11/02 05:05:33;;;;;;;5.88;1.50;;;11.70;74.10;;;;;;5062106;28;20135;-79
2023/11/02 05:07:59;;;;;;;5.82;2.17;;;11.70;74.10;;;;;;5058889;28;20132;-78
2023/11/02 05:10:25;;;;;;;6.18;1.38;;;11.70;74.10;;;;;;5058606;28;20090;-78
2023/11/02 05:12:52;;;;;;;4.05;1.50;;;11.70;74.10;;;;;;5061382;28;20036;-78
2023/11/02 05:15:18;;;;;;;3.20;1.20;;;11.70;74.20;;;;;;5080502;28;20479;-78
2023/11/02 05:17:43;;;;;;;5.93;1.42;;;11.70;74.10;;;;;;5060607;28;20036;-78
2023/11/02 05:20:09;;;;;;;6.22;1.70;;;11.70;74.20;;;;;;5059404;28;20036;-78
2023/11/02 05:22:37;;;;;;;5.05;1.30;;;11.70;74.20;;;;;;5060631;28;20108;-78
2023/11/02 05:25:03;;;;;;;3.70;1.13;;;11.70;74.20;;;;;;5058558;28;20622;-78
2023/11/02 05:27:29;;;;;;;3.72;1.50;;;11.70;74.20;;;;;;5060756;28;20033;-78
2023/11/02 05:29:55;;;;;;;6.38;1.45;;;11.70;74.20;;;;;;5059497;28;20040;-78
2023/11/02 05:32:21;;;;;;;6.18;1.42;;;11.70;74.20;;;;;;5062283;28;20051;-78
2023/11/02 05:34:47;;;;;;;4.55;1.15;;;11.60;74.00;;;;;;5060097;28;20033;-78
2023/11/02 05:37:13;;;;;;;3.80;1.08;;;11.70;74.80;;;;;;5060761;28;20589;-79
2023/11/02 05:39:39;;;;;;;6.00;1.88;;;11.60;74.10;;;;;;5057224;28;20149;-79
2023/11/02 05:42:06;;;;;;;3.42;1.27;;;11.60;74.10;;;;;;5053258;28;20025;-79
2023/11/02 05:44:32;;;;;;;5.82;1.98;;;11.60;74.10;;;;;;5061594;28;20043;-79
2023/11/02 05:46:58;;;;;;;4.63;1.20;;;11.60;74.10;;;;;;5058956;28;20385;-78
2023/11/02 05:49:24;;;;;;;3.30;1.15;;;11.60;74.10;;;;;;5062032;28;20036;-79
2023/11/02 05:51:50;;;;;;;7.18;1.60;;;11.60;74.10;;;;;;5057660;28;20040;-79
2023/11/02 05:54:16;;;;;;;2.17;0.98;;;11.60;74.10;;;;;;5057875;28;20598;-79
2023/11/02 05:56:42;;;;;;;3.47;0.90;;;11.60;74.20;;;;;;5049482;28;20028;-78
2023/11/02 05:59:10;;;;;;;6.88;1.65;;;11.60;74.20;;;;;;5054052;28;20025;-78
2023/11/02 06:01:37;;;;;;;6.40;1.73;;;11.60;74.20;;;;;;5065023;28;20026;-82
2023/11/02 06:04:03;;;;;;;4.00;1.10;;;11.60;74.20;;;;;;5055364;28;20395;-77
2023/11/02 06:06:29;;;;;;;3.92;1.30;;;11.60;74.20;;;;;;5058249;28;20037;-77
2023/11/02 06:08:55;;;;;;;5.63;2.75;;;11.60;74.20;;;;;;5053533;28;20036;-77
2023/11/02 06:11:21;;;;;;;7.18;2.40;;;11.60;74.20;;;;;;5059530;28;20380;-78
2023/11/02 06:13:48;;;;;;;2.40;1.13;;;11.60;74.20;;;;;;5061671;28;20037;-78
2023/11/02 06:16:15;;;;;;;2.63;1.08;;;11.60;74.20;;;;;;5055260;28;20037;-79
2023/11/02 06:18:41;;;;;;;3.55;1.08;;;11.60;74.20;;;;;;5063655;28;20535;-79
2023/11/02 06:21:07;;;;;;;3.00;1.10;;;11.60;74.20;;;;;;5062400;28;20044;-78
2023/11/02 06:23:33;;;;;;;4.90;1.33;;;11.60;74.30;;;;;;5063886;28;20037;-79
2023/11/02 06:25:59;;;;;;;3.75;1.13;;;11.60;74.30;;;;;;5059140;28;20024;-78
2023/11/02 06:28:25;;;;;;;3.92;1.20;;;11.60;74.30;;;;;;5065632;28;20040;-77
2023/11/02 06:30:52;;;;;;;4.63;1.38;;;11.60;74.30;;;;;;5065656;28;20055;-78
2023/11/02 06:33:28;;;;;;;5.30;1.15;;;11.60;74.30;;;;;;5067188;28;20080;-77
2023/11/02 06:35:56;;;;;;;2.08;1.50;;;11.60;74.30;;;;;;5056979;28;20036;-78
2023/11/02 06:38:22;;;;;;;2.88;1.17;;;11.60;74.30;;;;;;5054881;28;20077;-79
2023/11/02 06:40:49;;;;;;;3.67;1.17;;;11.60;74.30;;;;;;5059945;28;20116;-78
2023/11/02 06:43:15;;;;;;;3.42;0.88;;;11.60;74.40;;;;;;5063677;28;20035;-78
2023/11/02 06:45:41;;;;;;;5.47;1.63;;;11.60;74.40;;;;;;5060999;28;20028;-79
2023/11/02 06:48:07;;;;;;;3.95;1.52;;;11.60;74.40;;;;;;5062017;28;20119;-78
2023/11/02 06:50:33;;;;;;;5.55;1.52;;;11.60;74.40;;;;;;5062157;28;20054;-78
2023/11/02 06:52:59;;;;;;;5.60;1.50;;;11.60;74.40;;;;;;5054219;28;20070;-78
2023/11/02 06:55:25;;;;;;;7.30;1.05;;;11.60;74.40;;;;;;5056683;28;20593;-78
2023/11/02 06:57:51;;;;;;;5.60;1.45;;;11.60;74.40;;;;;;5060079;28;20491;-78
2023/11/02 07:00:17;;;;;;;6.32;1.20;;;11.60;74.40;;;;;;5061789;28;20024;-78
2023/11/02 07:02:43;;;;;;;3.58;0.90;;;11.60;74.40;;;;;;5061036;28;20433;-78
2023/11/02 07:05:09;;;;;;;3.30;1.38;;;11.60;74.40;;;;;;5056309;28;20760;-77
2023/11/02 07:07:36;;;;;;;7.55;1.30;;;11.60;74.50;;;;;;5060334;28;20700;-78
2023/11/02 07:10:03;;;;;;;2.90;1.15;;;11.60;74.40;;;;;;5056849;28;20544;-78
2023/11/02 07:12:30;;;;;;;3.22;1.00;;;11.70;74.60;;;;;;5063780;28;20336;-81
2023/11/02 07:14:56;;;;;;;4.85;1.23;;;11.70;74.60;;;;;;5063325;28;20182;-81
2023/11/02 07:17:22;;;;;;;4.13;1.00;;;11.60;74.40;;;;;;5062380;28;20166;-80
2023/11/02 07:19:49;;;;;;;2.88;0.80;;;11.60;75.00;;;;;;5059951;28;20567;-82
2023/11/02 07:22:18;;;;;;;7.22;1.90;;;11.70;74.60;;;;;;5061076;28;20059;-81
2023/11/02 07:24:44;;;;;;;2.00;0.80;;;11.70;74.60;;;;;;5062266;28;20028;-81
2023/11/02 07:27:11;;;;;;;3.70;1.25;;;11.70;74.70;;;;;;5081450;28;20035;-80
2023/11/02 07:29:37;;;;;;;5.25;1.10;;;11.70;74.90;;;;;;5069694;28;20032;-84
2023/11/02 07:32:03;;;;;;;2.15;1.02;;;11.70;74.90;;;;;;5043479;28;20521;-83
2023/11/02 07:34:29;;;;;;;5.65;1.17;;;11.80;75.20;;;;;;5054309;28;20039;-82
2023/11/02 07:36:56;;;;;;;5.38;1.42;;;11.80;75.10;;;;;;5062673;28;20028;-79
2023/11/02 07:39:23;;;;;;;9.85;2.80;;;11.80;75.20;;;;;;5056793;28;20063;-81
2023/11/02 07:41:49;;;;;;;14.43;3.67;;;11.80;75.20;;;;;;5056173;28;20106;-82
2023/11/02 07:44:17;;;;;;;7.75;1.83;;;11.80;75.40;;;;;;5063764;28;20243;-81
2023/11/02 07:46:43;;;;;;;7.53;1.67;;;11.80;75.60;;;;;;5061111;28;20032;-82
2023/11/02 07:49:09;;;;;;;9.30;1.30;;;11.90;75.80;;;;;;5062584;28;20530;-81
2023/11/02 07:51:35;;;;;;;6.03;1.38;;;11.90;75.80;;;;;;5061072;28;20048;-84
2023/11/02 07:54:01;;;;;;;6.72;1.60;;;11.90;75.90;;;;;;5057803;28;20037;-84
2023/11/02 07:56:27;;;;;;;6.70;1.48;;;11.90;76.00;;;;;;5060182;28;20495;-85
2023/11/02 07:58:53;;;;;;;8.43;2.83;;;12.00;76.20;;;;;;5058873;28;20036;-84
2023/11/02 08:01:20;;;;;;;7.25;1.67;;;12.00;76.30;;;;;;5061036;28;20025;-83
2023/11/02 08:03:45;;;;;;;6.80;1.67;;;12.00;76.40;;;;;;5064984;28;20036;-84
2023/11/02 08:06:12;;;;;;;7.90;1.70;;;12.10;76.60;;;;;;5063402;28;20567;-84
2023/11/02 08:08:38;;;;;;;5.60;1.33;;;12.10;76.60;;;;;;5057912;28;20035;-88
2023/11/02 08:11:04;;;;;;;4.63;1.48;;;12.10;76.60;;;;;;5057846;28;20040;-85
2023/11/02 08:13:31;;;;;;;3.60;0.93;;;12.10;76.60;;;;;;5069399;28;20592;-86
2023/11/02 08:15:57;;;;;;;6.30;2.00;;;12.10;76.70;;;;;;5064015;28;20455;-86
2023/11/02 08:18:24;;;;;;;3.55;1.33;;;12.20;76.90;;;;;;5038968;28;20033;-87
2023/11/02 08:20:49;;;;;;;4.90;1.30;;;12.20;76.90;;;;;;5062546;28;20037;-88
2023/11/02 08:23:16;;;;;;;3.42;0.90;;;12.20;77.40;;;;;;5062558;28;20024;-85
2023/11/02 08:25:45;;;;;;;4.60;1.13;;;12.30;77.10;;;;;;5058342;28;20199;-86
2023/11/02 08:28:12;;;;;;;4.95;1.05;;;12.30;77.10;;;;;;5056317;28;20056;-87
2023/11/02 08:30:38;;;;;;;2.42;0.90;;;12.30;77.10;;;;;;5060013;28;20552;-85
2023/11/02 08:33:04;;;;;;;3.63;0.82;;;12.30;77.10;;;;;;5064274;28;20052;-86
2023/11/02 08:35:30;;;;;;;6.03;1.08;;;12.30;77.10;;;;;;5053936;28;20043;-87
2023/11/02 08:37:56;;;;;;;3.55;1.00;;;12.40;77.20;;;;;;5057537;28;20039;-86
2023/11/02 08:40:22;;;;;;;3.65;0.75;;;12.40;77.20;;;;;;5052424;28;20048;-86
2023/11/02 08:42:49;;;;;;;3.60;0.95;;;12.40;77.30;;;;;;5055843;28;20058;-86
2023/11/02 08:45:17;;;;;;;1.65;1.55;;;12.40;77.30;;;;;;5060843;28;20797;-88
2023/11/02 08:47:43;;;;;;;3.05;0.93;;;12.40;77.30;;;;;;5055220;28;20111;-87
2023/11/02 08:50:11;;;;;;;3.45;1.17;;;12.50;77.50;;;;;;5061891;28;20238;-87
2023/11/02 08:52:38;;;;;;;4.43;1.25;;;12.40;77.40;;;;;;5040650;28;20052;-87
2023/11/02 08:55:05;;;;;;;4.68;0.90;;;12.40;77.40;;;;;;5055983;28;20028;-89
2023/11/02 08:57:32;;;;;;;2.78;0.70;;;12.50;77.60;;;;;;5056708;28;20035;-85
2023/11/02 08:59:58;;;;;;;2.83;1.20;;;12.50;78.10;;;;;;5054377;28;20341;-87
2023/11/02 09:02:25;;;;;;;2.25;1.10;;;12.50;77.60;;;;;;5065918;28;20441;-92
2023/11/02 09:04:54;;;;;;;3.53;0.95;;;12.50;77.60;;;;;;5065000;28;20090;-90
2023/11/02 09:07:21;;;;;;;3.67;1.20;;;12.60;77.80;;;;;;5062076;28;20036;-91
2023/11/02 09:09:48;;;;;;;3.45;0.93;;;12.60;77.80;;;;;;5065767;28;20040;-91
2023/11/02 09:12:13;;;;;;;1.17;0.63;;;12.70;78.00;;;;;;5063889;28;20595;-90
2023/11/02 09:14:39;;;;;;;1.50;1.27;;;12.70;78.00;;;;;;5065931;28;20039;-89
2023/11/02 09:17:05;;;;;;;3.72;1.77;;;12.70;77.90;;;;;;5070438;28;20474;-88
2023/11/02 09:19:32;;;;;;;2.63;1.80;;;12.80;78.10;;;;;;5064066;28;20025;-90
2023/11/02 09:21:58;;;;;;;1.77;1.38;;;12.80;78.10;;;;;;5066823;28;20448;-87
2023/11/02 09:24:24;;;;;;;3.78;1.55;;;12.90;78.30;;;;;;5062423;28;20040;-87
2023/11/02 09:26:51;;;;;;;2.15;1.27;;;12.90;78.30;;;;;;5060467;28;20037;-88
2023/11/02 09:29:17;;;;;;;2.63;1.30;;;12.90;78.30;;;;;;5055157;28;20097;-88
2023/11/02 09:31:43;;;;;;;2.13;1.60;;;12.90;78.20;;;;;;5059573;28;20089;-87
2023/11/02 09:34:10;;;;;;;2.50;1.40;;;12.90;78.30;;;;;;5052791;28;20039;-87
2023/11/02 09:36:37;;;;;;;2.75;1.30;;;12.90;78.30;;;;;;5058120;28;20067;-88
2023/11/02 09:39:07;;;;;;;2.65;1.10;;;13.00;78.50;;;;;;5054550;28;20131;-88
2023/11/02 09:41:37;;;;;;;1.95;1.10;;;13.00;78.50;;;;;;5049332;28;20040;-88
2023/11/02 09:44:05;;;;;;;1.63;1.20;;;13.00;78.50;;;;;;5057533;28;20048;-87
2023/11/02 09:46:32;;;;;;;2.40;1.10;;;13.10;78.70;;;;;;5060311;28;20574;-85
2023/11/02 09:48:58;;;;;;;2.95;1.10;;;13.10;78.70;;;;;;5057240;28;20043;-85
2023/11/02 09:51:24;;;;;;;2.08;1.20;;;13.10;79.20;;;;;;5055341;28;20155;-85
2023/11/02 09:53:51;;;;;;;2.17;1.00;;;13.20;78.80;;;;;;5057037;28;20561;-86
2023/11/02 09:56:19;;;;;;;1.27;0.90;;;13.20;78.80;;;;;;5062655;28;20036;-86
2023/11/02 09:58:46;;;;;;;1.92;0.93;;;13.20;78.80;;;;;;5051197;28;20020;-86
2023/11/02 10:01:15;;;;;;;3.30;1.10;;;13.30;78.90;;;;;;5046804;28;20040;-87
2023/11/02 10:03:42;;;;;;;2.55;0.90;;;13.30;78.90;;;;;;5059536;28;20064;-87
2023/11/02 10:06:08;;;;;;;1.23;0.98;;;13.40;79.00;;;;;;5077593;28;20278;-86
2023/11/02 10:08:35;;;;;;;2.05;0.82;;;13.40;78.90;;;;;;5063278;28;20366;-87
2023/11/02 10:11:14;;;;;;;1.20;0.73;;;13.40;78.80;;;;;;5063505;28;20043;-90
2023/11/02 10:13:44;;;;;;;0.95;0.50;;;13.40;78.80;;;;;;5068789;28;20504;-88
2023/11/02 10:16:10;;;;;;;1.65;0.80;;;13.40;78.80;;;;;;5053949;28;20090;-90
2023/11/02 10:18:36;;;;;;;2.03;0.70;;;13.40;78.70;;;;;;5048768;28;20044;-88
2023/11/02 10:21:05;;;;;;;1.20;0.50;;;13.40;78.70;;;;;;5071725;28;20041;-87
2023/11/02 10:23:54;;;;;;;1.80;0.60;;;13.40;78.70;;;;;;5068442;28;20116;-86
2023/11/02 10:26:21;;;;;;;2.72;0.93;;;13.40;78.80;;;;;;5069459;28;20102;-86
2023/11/02 10:28:47;;;;;;;1.52;0.70;;;13.50;78.90;;;;;;5071084;28;20029;-87
2023/11/02 10:31:18;;;;;;;1.67;0.70;;;13.50;78.90;;;;;;5067813;28;20051;-88
2023/11/02 10:33:48;;;;;;;1.30;0.70;;;13.50;78.80;;;;;;5061119;28;20051;-86
2023/11/02 10:36:16;;;;;;;0.50;0.35;;;13.50;78.80;;;;;;5063048;28;20039;-86
2023/11/02 10:38:46;;;;;;;1.70;0.65;;;13.50;78.70;;;;;;5066668;28;20040;-87
2023/11/02 10:41:15;;;;;;;1.95;0.40;;;13.50;78.70;;;;;;5062929;28;20074;-86
2023/11/02 10:43:45;;;;;;;0.45;0.30;;;13.40;78.60;;;;;;5068162;28;20089;-86
2023/11/02 10:46:12;;;;;;;1.85;0.57;;;13.40;78.60;;;;;;5066918;28;20036;-86
2023/11/02 10:48:40;;;;;;;0.85;0.40;;;13.40;78.60;;;;;;5071244;28;20119;-85
2023/11/02 10:51:18;;;;;;;0.57;0.40;;;13.40;78.60;;;;;;5065859;28;20036;-88
2023/11/02 10:54:17;;;;;;;2.35;0.43;;;13.40;78.60;;;;;;5046393;28;20032;-87
2023/11/02 10:56:49;;;;;;;0.85;0.50;;;13.40;78.60;;;;;;5058491;28;20044;-85
2023/11/02 10:59:16;;;;;;;0.40;0.40;;;13.40;78.60;;;;;;5064791;28;20582;-87
2023/11/02 11:01:43;;;;;;;1.65;1.17;;;13.40;78.60;;;;;;5047434;28;20147;-87
2023/11/02 11:04:10;;;;;;;0.82;0.40;;;13.50;78.70;;;;;;5063384;28;20044;-87
2023/11/02 11:06:43;;;;;;;2.28;0.47;;;13.50;78.70;;;;;;5059946;28;20098;-86
2023/11/02 11:09:11;;;;;;;0.82;0.40;;;13.50;78.70;;;;;;5057837;28;20028;-85
2023/11/02 11:11:38;;;;;;;2.60;0.40;;;13.50;78.60;;;;;;5062393;28;20119;-85
2023/11/02 11:14:05;;;;;;;1.00;0.50;;;13.50;78.60;;;;;;5062275;28;20656;-85
2023/11/02 11:16:34;;;;;;;1.50;0.50;;;13.50;78.60;;;;;;5061082;28;20033;-86
2023/11/02 11:19:00;;;;;;;0.77;0.32;;;13.50;78.70;;;;;;5062559;28;20369;-86
2023/11/02 11:21:27;;;;;;;1.08;0.30;;;13.60;78.80;;;;;;5067895;28;20032;-86
2023/11/02 11:23:54;;;;;;;0.63;0.30;;;13.60;78.70;;;;;;5057362;28;20043;-86
2023/11/02 11:26:20;;;;;;;2.25;0.38;;;13.60;78.70;;;;;;5059672;28;20410;-87
2023/11/02 11:28:51;;;;;;;1.95;0.30;;;13.60;78.60;;;;;;5057781;28;20029;-86
2023/11/02 11:31:55;;;;;;;0.45;0.30;;;13.60;78.60;;;;;;5061994;28;20197;-87
2023/11/02 11:34:23;;;;;;;0.40;0.30;;;13.60;78.60;;;;;;5057383;28;20043;-92
2023/11/02 11:36:49;;;;;;;0.40;0.40;;;13.60;78.50;;;;;;5059254;28;20041;-86
2023/11/02 11:39:36;;;;;;;0.43;0.30;;;13.60;78.50;;;;;;5055808;28;20435;-87
2023/11/02 11:42:03;;;;;;;0.57;0.40;;;13.60;79.10;;;;;;5073298;28;20100;-88
2023/11/02 11:44:29;;;;;;;1.02;0.50;;;13.60;78.60;;;;;;5055851;28;20115;-86
2023/11/02 11:46:57;;;;;;;0.50;0.30;;;13.60;78.60;;;;;;5061203;28;20474;-87
2023/11/02 11:49:33;;;;;;;1.30;0.32;;;13.70;78.80;;;;;;5055754;28;20044;-86
2023/11/02 11:52:03;;;;;;;0.43;0.22;;;13.70;78.80;;;;;;5048120;28;20040;-86
2023/11/02 11:54:31;;;;;;;0.90;0.40;;;13.70;78.70;;;;;;5058711;28;20201;-83
2023/11/02 11:56:58;;;;;;;0.95;0.73;;;13.70;78.80;;;;;;5054045;28;20055;-84
2023/11/02 11:59:56;;;;;;;0.30;0.30;;;13.70;78.70;;;;;;5056650;28;20028;-80
2023/11/02 12:02:36;;;;;;;0.90;0.30;;;13.70;78.70;;;;;;5060463;28;20098;-81
2023/11/02 12:05:03;;;;;;;2.08;0.40;;;13.70;78.70;;;;;;5057655;28;20032;-81
2023/11/02 12:07:29;;;;;;;2.03;0.40;;;13.80;78.80;;;;;;5056148;28;20043;-82
2023/11/02 12:10:03;;;;;;;1.33;0.57;;;13.80;78.70;;;;;;5057572;28;20036;-81
2023/11/02 12:12:30;;;;;;;1.70;0.50;;;13.70;78.60;;;;;;5062067;28;20036;-80
2023/11/02 12:15:16;;;;;;;1.70;0.47;;;13.70;78.60;;;;;;5061447;28;20063;-80
2023/11/02 12:17:52;;;;;;;1.75;0.47;;;13.80;78.70;;;;;;5056122;28;20727;-80
2023/11/02 12:20:37;;;;;;;1.50;0.40;;;13.80;78.80;;;;;;5043167;28;20025;-81
2023/11/02 12:23:04;;;;;;;2.60;0.73;;;13.70;78.40;;;;;;5061967;28;20181;-80
2023/11/02 12:25:30;;;;;;;1.33;0.40;;;13.70;78.40;;;;;;5057134;28;20029;-80
2023/11/02 12:27:56;;;;;;;1.48;0.40;;;13.70;78.40;;;;;;5053450;28;20025;-81
2023/11/02 12:30:23;;;;;;;2.05;0.40;;;13.70;78.40;;;;;;5054810;28;20465;-80
2023/11/02 12:32:49;;;;;;;1.77;0.55;;;13.70;78.30;;;;;;5061941;28;20459;-81
2023/11/02 12:35:18;;;;;;;1.38;0.30;;;13.70;78.30;;;;;;5048573;28;20457;-80
2023/11/02 12:37:44;;;;;;;1.00;0.50;;;13.70;78.20;;;;;;5054047;28;20075;-81
2023/11/02 12:40:12;;;;;;;1.35;0.60;;;13.70;78.20;;;;;;5051062;28;20067;-82
2023/11/02 12:42:38;;;;;;;1.42;0.60;;;13.70;78.20;;;;;;5052982;28;20090;-82
2023/11/02 12:45:05;;;;;;;1.25;0.57;;;13.70;78.20;;;;;;5056546;28;20531;-81
2023/11/02 12:47:39;;;;;;;3.33;0.52;;;13.60;77.90;;;;;;5050560;28;20053;-81
2023/11/02 12:50:23;;;;;;;2.67;0.50;;;13.70;78.10;;;;;;5052766;28;20114;-82
2023/11/02 12:52:50;;;;;;;3.50;0.45;;;13.70;78.00;;;;;;5057169;28;20101;-81
2023/11/02 12:55:16;;;;;;;2.88;0.60;;;13.70;78.00;;;;;;5077974;28;20387;-81
2023/11/02 12:57:43;;;;;;;2.60;0.95;;;13.60;77.70;;;;;;5067325;28;20395;-84
2023/11/02 13:00:15;;;;;;;2.72;0.80;;;13.60;77.70;;;;;;5057728;28;20407;-84
2023/11/02 13:02:41;;;;;;;3.28;1.15;;;13.60;77.60;;;;;;5059657;28;20512;-84
2023/11/02 13:05:07;;;;;;;3.03;0.68;;;13.60;77.60;;;;;;5056104;28;20032;-83